createdAt,value
2019-04-29T00:00:32.957Z,6.06
2019-04-29T00:01:07.305Z,6.12
2019-04-29T00:01:41.531Z,6.06
2019-04-29T00:02:20.543Z,6.06
2019-04-29T00:02:53.592Z,6.06
2019-04-29T00:03:26.544Z,6.06
2019-04-29T00:03:59.609Z,6.06
2019-04-29T00:04:32.752Z,6.06
2019-04-29T00:05:06.395Z,6.12
2019-04-29T00:05:39.555Z,6.06
2019-04-29T00:06:13.604Z,6.06
2019-04-29T00:06:46.615Z,6.12
2019-04-29T00:07:19.654Z,6.12
2019-04-29T00:07:52.700Z,6.12
2019-04-29T00:08:25.869Z,6.12
2019-04-29T00:08:58.954Z,6.12
2019-04-29T00:09:32.127Z,6.12
2019-04-29T00:10:07.191Z,6.12
2019-04-29T00:10:40.350Z,6.12
2019-04-29T00:11:13.488Z,6.12
2019-04-29T00:11:46.540Z,6.12
2019-04-29T00:12:19.891Z,6.12
2019-04-29T00:12:52.952Z,6.12
2019-04-29T00:13:26.211Z,6.12
2019-04-29T00:13:59.326Z,6.12
2019-04-29T00:14:34.375Z,6.12
2019-04-29T00:15:30.202Z,6.12
2019-04-29T00:16:11.039Z,6.12
2019-04-29T00:17:06.745Z,6.12
2019-04-29T00:17:49.590Z,6.12
2019-04-29T00:18:28.397Z,6.12
2019-04-29T00:19:26.703Z,6.12
2019-04-29T00:20:25.337Z,6.12
2019-04-29T00:20:58.379Z,6.06
2019-04-29T00:21:32.413Z,6.06
2019-04-29T00:22:05.715Z,6.06
2019-04-29T00:22:38.770Z,6.06
2019-04-29T00:23:11.791Z,6.06
2019-04-29T00:23:44.811Z,6.06
2019-04-29T00:24:17.802Z,6.06
2019-04-29T00:24:50.854Z,6.06
2019-04-29T00:25:24.045Z,6.06
2019-04-29T00:25:57.069Z,6.00
2019-04-29T00:26:31.276Z,6.00
2019-04-29T00:27:05.738Z,6.00
2019-04-29T00:27:38.927Z,6.00
2019-04-29T00:28:12.065Z,6.00
2019-04-29T00:28:45.062Z,6.00
2019-04-29T00:29:18.185Z,6.00
2019-04-29T00:29:51.191Z,5.94
2019-04-29T00:30:24.215Z,5.94
2019-04-29T00:30:57.299Z,5.94
2019-04-29T00:31:30.249Z,5.94
2019-04-29T00:32:03.856Z,5.94
2019-04-29T00:32:36.903Z,5.87
2019-04-29T00:33:09.895Z,5.87
2019-04-29T00:33:42.987Z,5.87
2019-04-29T00:34:15.993Z,5.87
2019-04-29T00:34:49.048Z,5.87
2019-04-29T00:35:22.031Z,5.87
2019-04-29T00:35:55.107Z,5.87
2019-04-29T00:36:33.081Z,5.87
2019-04-29T00:37:14.067Z,5.87
2019-04-29T00:38:09.557Z,5.87
2019-04-29T00:38:58.806Z,5.87
2019-04-29T00:39:57.501Z,5.87
2019-04-29T00:40:52.820Z,5.81
2019-04-29T00:41:52.386Z,5.81
2019-04-29T00:42:39.414Z,5.81
2019-04-29T00:43:20.970Z,5.81
2019-04-29T00:43:56.751Z,5.81
2019-04-29T00:44:29.771Z,5.75
2019-04-29T00:45:03.609Z,5.75
2019-04-29T00:45:36.820Z,5.75
2019-04-29T00:46:10.547Z,5.75
2019-04-29T00:46:43.741Z,5.75
2019-04-29T00:47:16.872Z,5.75
2019-04-29T00:47:50.857Z,5.69
2019-04-29T00:48:23.879Z,5.69
2019-04-29T00:48:57.152Z,5.69
2019-04-29T00:49:30.204Z,5.69
2019-04-29T00:50:05.763Z,5.69
2019-04-29T00:50:38.824Z,5.69
2019-04-29T00:51:11.919Z,5.69
2019-04-29T00:51:44.859Z,5.69
2019-04-29T00:52:17.861Z,5.62
2019-04-29T00:52:50.707Z,5.62
2019-04-29T00:53:23.746Z,5.62
2019-04-29T00:54:04.765Z,5.62
2019-04-29T00:54:43.671Z,5.62
2019-04-29T00:55:19.508Z,5.62
2019-04-29T00:55:52.814Z,5.62
2019-04-29T00:56:25.767Z,5.62
2019-04-29T00:56:58.921Z,5.62
2019-04-29T00:57:31.887Z,5.62
2019-04-29T00:58:04.851Z,5.56
2019-04-29T00:58:37.910Z,5.56
2019-04-29T00:59:10.942Z,5.62
2019-04-29T00:59:43.906Z,5.62
2019-04-29T01:00:34.705Z,5.62
2019-04-29T01:01:11.343Z,5.62
2019-04-29T01:01:44.369Z,5.56
2019-04-29T01:02:17.413Z,5.56
2019-04-29T01:02:50.319Z,5.56
2019-04-29T01:03:23.883Z,5.56
2019-04-29T01:03:56.986Z,5.56
2019-04-29T01:04:30.019Z,5.56
2019-04-29T01:05:03.537Z,5.56
2019-04-29T01:05:37.007Z,5.56
2019-04-29T01:06:11.034Z,5.56
2019-04-29T01:06:44.162Z,5.56
2019-04-29T01:07:17.289Z,5.56
2019-04-29T01:07:50.743Z,5.56
2019-04-29T01:08:23.879Z,5.56
2019-04-29T01:08:57.144Z,5.56
2019-04-29T01:09:30.649Z,5.56
2019-04-29T01:10:04.219Z,5.56
2019-04-29T01:10:37.119Z,5.56
2019-04-29T01:11:10.275Z,5.50
2019-04-29T01:11:43.270Z,5.50
2019-04-29T01:12:16.320Z,5.50
2019-04-29T01:12:49.206Z,5.50
2019-04-29T01:13:22.799Z,5.50
2019-04-29T01:13:55.797Z,5.50
2019-04-29T01:14:28.837Z,5.50
2019-04-29T01:15:01.841Z,5.50
2019-04-29T01:15:34.929Z,5.50
2019-04-29T01:16:07.953Z,5.50
2019-04-29T01:16:40.999Z,5.50
2019-04-29T01:17:15.102Z,5.50
2019-04-29T01:17:48.155Z,5.50
2019-04-29T01:18:21.173Z,5.44
2019-04-29T01:18:54.063Z,5.44
2019-04-29T01:19:26.965Z,5.44
2019-04-29T01:20:00.035Z,5.44
2019-04-29T01:20:33.041Z,5.44
2019-04-29T01:21:06.038Z,5.44
2019-04-29T01:21:39.077Z,5.44
2019-04-29T01:22:11.967Z,5.44
2019-04-29T01:22:45.003Z,5.44
2019-04-29T01:23:18.469Z,5.44
2019-04-29T01:23:51.551Z,5.44
2019-04-29T01:24:24.619Z,5.44
2019-04-29T01:24:57.557Z,5.44
2019-04-29T01:25:30.559Z,5.44
2019-04-29T01:26:27.827Z,5.44
2019-04-29T01:27:35.592Z,5.44
2019-04-29T01:28:16.256Z,5.44
2019-04-29T01:28:52.149Z,5.44
2019-04-29T01:29:27.146Z,5.44
2019-04-29T01:30:00.267Z,5.44
2019-04-29T01:31:04.521Z,5.44
2019-04-29T01:31:37.894Z,5.44
2019-04-29T01:32:10.887Z,5.44
2019-04-29T01:32:43.709Z,5.44
2019-04-29T01:33:16.735Z,5.44
2019-04-29T01:33:52.979Z,5.44
2019-04-29T01:34:30.941Z,5.44
2019-04-29T01:35:04.127Z,5.44
2019-04-29T01:35:37.885Z,5.44
2019-04-29T01:36:45.650Z,5.50
2019-04-29T01:37:18.874Z,5.50
2019-04-29T01:37:51.915Z,5.50
2019-04-29T01:38:24.941Z,5.50
2019-04-29T01:39:00.230Z,5.50
2019-04-29T01:39:40.913Z,5.50
2019-04-29T01:40:33.611Z,5.50
2019-04-29T01:41:13.167Z,5.50
2019-04-29T01:42:10.323Z,5.50
2019-04-29T01:42:43.515Z,5.56
2019-04-29T01:43:16.509Z,5.56
2019-04-29T01:44:09.153Z,5.56
2019-04-29T01:44:42.215Z,5.56
2019-04-29T01:45:15.130Z,5.56
2019-04-29T01:45:48.122Z,5.56
2019-04-29T01:46:21.176Z,5.56
2019-04-29T01:46:54.304Z,5.56
2019-04-29T01:47:27.142Z,5.56
2019-04-29T01:48:00.148Z,5.56
2019-04-29T01:48:33.146Z,5.62
2019-04-29T01:49:06.282Z,5.62
2019-04-29T01:49:39.185Z,5.62
2019-04-29T01:50:12.211Z,5.62
2019-04-29T01:50:45.284Z,5.62
2019-04-29T01:51:18.279Z,5.62
2019-04-29T01:51:51.424Z,5.62
2019-04-29T01:52:24.466Z,5.62
2019-04-29T01:52:57.392Z,5.62
2019-04-29T01:53:30.582Z,5.62
2019-04-29T01:54:03.969Z,5.62
2019-04-29T01:54:36.902Z,5.62
2019-04-29T01:55:09.939Z,5.62
2019-04-29T01:55:43.823Z,5.62
2019-04-29T01:56:17.979Z,5.62
2019-04-29T01:56:51.047Z,5.62
2019-04-29T01:57:24.164Z,5.62
2019-04-29T01:57:56.984Z,5.62
2019-04-29T01:58:29.945Z,5.62
2019-04-29T01:59:03.382Z,5.62
2019-04-29T01:59:36.612Z,5.62
2019-04-29T02:00:12.446Z,5.62
2019-04-29T02:00:45.543Z,5.56
2019-04-29T02:01:19.184Z,5.56
2019-04-29T02:01:52.250Z,5.62
2019-04-29T02:02:25.354Z,5.56
2019-04-29T02:02:58.423Z,5.56
2019-04-29T02:03:31.467Z,5.56
2019-04-29T02:04:04.720Z,5.56
2019-04-29T02:04:37.802Z,5.56
2019-04-29T02:05:11.076Z,5.56
2019-04-29T02:05:44.162Z,5.56
2019-04-29T02:06:17.265Z,5.56
2019-04-29T02:06:52.070Z,5.56
2019-04-29T02:07:25.142Z,5.56
2019-04-29T02:07:58.249Z,5.50
2019-04-29T02:08:31.376Z,5.50
2019-04-29T02:09:10.251Z,5.50
2019-04-29T02:10:01.751Z,5.50
2019-04-29T02:10:34.942Z,5.50
2019-04-29T02:11:07.945Z,5.50
2019-04-29T02:11:40.951Z,5.50
2019-04-29T02:12:13.969Z,5.56
2019-04-29T02:12:47.010Z,5.56
2019-04-29T02:13:20.006Z,5.56
2019-04-29T02:13:53.154Z,5.56
2019-04-29T02:14:26.193Z,5.56
2019-04-29T02:14:59.120Z,5.56
2019-04-29T02:15:32.147Z,5.56
2019-04-29T02:16:05.299Z,5.56
2019-04-29T02:16:38.214Z,5.56
2019-04-29T02:17:11.387Z,5.56
2019-04-29T02:17:44.175Z,5.56
2019-04-29T02:18:17.131Z,5.56
2019-04-29T02:18:50.152Z,5.56
2019-04-29T02:19:23.103Z,5.56
2019-04-29T02:19:56.012Z,5.56
2019-04-29T02:20:29.174Z,5.62
2019-04-29T02:21:02.064Z,5.62
2019-04-29T02:21:38.171Z,5.62
2019-04-29T02:22:27.610Z,5.62
2019-04-29T02:23:35.428Z,5.62
2019-04-29T02:24:14.084Z,5.62
2019-04-29T02:24:54.080Z,5.62
2019-04-29T02:25:32.875Z,5.62
2019-04-29T02:26:06.515Z,5.62
2019-04-29T02:26:39.504Z,5.62
2019-04-29T02:27:15.960Z,5.62
2019-04-29T02:27:48.991Z,5.62
2019-04-29T02:28:21.906Z,5.62
2019-04-29T02:28:55.944Z,5.62
2019-04-29T02:29:28.914Z,5.62
2019-04-29T02:30:02.764Z,5.62
2019-04-29T02:30:48.336Z,5.62
2019-04-29T02:31:39.945Z,5.62
2019-04-29T02:32:12.886Z,5.62
2019-04-29T02:32:45.925Z,5.62
2019-04-29T02:33:19.061Z,5.62
2019-04-29T02:33:52.060Z,5.62
2019-04-29T02:34:25.007Z,5.62
2019-04-29T02:34:57.980Z,5.62
2019-04-29T02:35:31.019Z,5.62
2019-04-29T02:36:03.973Z,5.62
2019-04-29T02:36:37.373Z,5.62
2019-04-29T02:37:12.204Z,5.62
2019-04-29T02:37:45.259Z,5.62
2019-04-29T02:38:43.818Z,5.69
2019-04-29T02:39:35.303Z,5.62
2019-04-29T02:40:21.990Z,5.62
2019-04-29T02:41:13.628Z,5.62
2019-04-29T02:42:15.312Z,5.62
2019-04-29T02:43:01.110Z,5.62
2019-04-29T02:43:35.615Z,5.62
2019-04-29T02:44:09.413Z,5.56
2019-04-29T02:44:42.556Z,5.56
2019-04-29T02:45:22.260Z,5.56
2019-04-29T02:45:55.287Z,5.56
2019-04-29T02:46:28.288Z,5.56
2019-04-29T02:47:01.435Z,5.56
2019-04-29T02:47:34.546Z,5.56
2019-04-29T02:48:08.440Z,5.56
2019-04-29T02:48:41.609Z,5.50
2019-04-29T02:49:14.686Z,5.56
2019-04-29T02:49:47.836Z,5.56
2019-04-29T02:50:21.923Z,5.50
2019-04-29T02:50:55.123Z,5.50
2019-04-29T02:51:47.028Z,5.50
2019-04-29T02:52:20.131Z,5.44
2019-04-29T02:52:53.194Z,5.44
2019-04-29T02:53:26.252Z,5.44
2019-04-29T02:53:59.339Z,5.37
2019-04-29T02:54:32.754Z,5.37
2019-04-29T02:55:07.934Z,5.37
2019-04-29T02:55:45.854Z,5.37
2019-04-29T02:56:18.826Z,5.31
2019-04-29T02:57:02.348Z,5.31
2019-04-29T02:57:53.595Z,5.31
2019-04-29T02:58:37.803Z,5.31
2019-04-29T02:59:11.328Z,5.31
2019-04-29T02:59:46.822Z,5.31
2019-04-29T03:00:31.866Z,5.31
2019-04-29T03:01:32.442Z,5.25
2019-04-29T03:02:32.262Z,5.25
2019-04-29T03:03:14.997Z,5.25
2019-04-29T03:04:19.795Z,5.25
2019-04-29T03:05:15.448Z,5.25
2019-04-29T03:05:51.904Z,5.31
2019-04-29T03:06:25.817Z,5.31
2019-04-29T03:06:58.950Z,5.25
2019-04-29T03:07:32.027Z,5.25
2019-04-29T03:08:05.042Z,5.25
2019-04-29T03:08:38.164Z,5.25
2019-04-29T03:09:12.153Z,5.25
2019-04-29T03:09:45.448Z,5.25
2019-04-29T03:10:18.489Z,5.25
2019-04-29T03:10:51.548Z,5.19
2019-04-29T03:11:24.815Z,5.19
2019-04-29T03:12:01.639Z,5.19
2019-04-29T03:12:33.067Z,5.19
2019-04-29T03:13:07.324Z,5.19
2019-04-29T03:13:40.479Z,5.19
2019-04-29T03:14:13.710Z,5.19
2019-04-29T03:14:46.651Z,5.19
2019-04-29T03:15:29.304Z,5.19
2019-04-29T03:16:03.894Z,5.19
2019-04-29T03:16:36.964Z,5.19
2019-04-29T03:17:10.217Z,5.19
2019-04-29T03:17:43.410Z,5.12
2019-04-29T03:18:16.818Z,5.12
2019-04-29T03:18:58.006Z,5.12
2019-04-29T03:19:35.693Z,5.12
2019-04-29T03:20:17.781Z,5.12
2019-04-29T03:21:04.641Z,5.12
2019-04-29T03:21:47.718Z,5.12
2019-04-29T03:22:20.762Z,5.12
2019-04-29T03:23:07.055Z,5.12
2019-04-29T03:23:40.204Z,5.12
2019-04-29T03:24:13.325Z,5.12
2019-04-29T03:24:46.418Z,5.12
2019-04-29T03:25:19.359Z,5.12
2019-04-29T03:25:52.416Z,5.12
2019-04-29T03:26:25.610Z,5.12
2019-04-29T03:27:00.100Z,5.12
2019-04-29T03:27:33.174Z,5.12
2019-04-29T03:28:06.223Z,5.12
2019-04-29T03:28:39.342Z,5.12
2019-04-29T03:29:21.697Z,5.12
2019-04-29T03:29:55.723Z,5.12
2019-04-29T03:30:28.762Z,5.12
2019-04-29T03:31:01.818Z,5.12
2019-04-29T03:31:39.029Z,5.12
2019-04-29T03:32:09.586Z,5.12
2019-04-29T03:32:42.637Z,5.12
2019-04-29T03:33:15.616Z,5.12
2019-04-29T03:33:48.586Z,5.12
2019-04-29T03:34:21.840Z,5.19
2019-04-29T03:34:56.112Z,5.19
2019-04-29T03:35:29.125Z,5.12
2019-04-29T03:36:02.156Z,5.12
2019-04-29T03:36:35.290Z,5.12
2019-04-29T03:37:08.430Z,5.12
2019-04-29T03:37:41.438Z,5.12
2019-04-29T03:38:14.580Z,5.12
2019-04-29T03:38:47.505Z,5.12
2019-04-29T03:39:20.518Z,5.12
2019-04-29T03:39:53.415Z,5.12
2019-04-29T03:40:26.468Z,5.12
2019-04-29T03:40:59.358Z,5.06
2019-04-29T03:41:33.166Z,5.06
2019-04-29T03:42:07.401Z,5.06
2019-04-29T03:42:40.792Z,5.06
2019-04-29T03:43:13.790Z,5.06
2019-04-29T03:43:46.936Z,5.06
2019-04-29T03:44:20.161Z,5.06
2019-04-29T03:44:54.204Z,5.06
2019-04-29T03:45:27.184Z,5.06
2019-04-29T03:46:00.436Z,5.06
2019-04-29T03:46:33.556Z,5.00
2019-04-29T03:47:06.508Z,5.00
2019-04-29T03:47:39.541Z,5.00
2019-04-29T03:48:12.410Z,5.00
2019-04-29T03:48:45.424Z,4.94
2019-04-29T03:49:18.569Z,4.94
2019-04-29T03:49:51.557Z,4.94
2019-04-29T03:50:25.523Z,4.94
2019-04-29T03:50:58.622Z,4.94
2019-04-29T03:51:31.753Z,4.94
2019-04-29T03:52:04.864Z,4.94
2019-04-29T03:52:37.709Z,4.94
2019-04-29T03:53:10.603Z,4.87
2019-04-29T03:53:43.662Z,4.87
2019-04-29T03:54:16.518Z,4.87
2019-04-29T03:54:49.780Z,4.87
2019-04-29T03:55:38.311Z,4.87
2019-04-29T03:55:58.820Z,4.87
2019-04-29T03:56:32.743Z,4.87
2019-04-29T03:57:06.528Z,4.87
2019-04-29T03:57:39.471Z,4.81
2019-04-29T03:58:13.099Z,4.81
2019-04-29T03:58:46.171Z,4.81
2019-04-29T03:59:19.356Z,4.81
2019-04-29T03:59:52.332Z,4.81
2019-04-29T04:00:25.469Z,4.81
2019-04-29T04:01:15.705Z,4.75
2019-04-29T04:02:08.238Z,4.75
2019-04-29T04:03:19.803Z,4.75
2019-04-29T04:04:04.208Z,4.69
2019-04-29T04:05:12.120Z,4.69
2019-04-29T04:05:54.873Z,4.62
2019-04-29T04:06:34.301Z,4.62
2019-04-29T04:07:25.511Z,4.62
2019-04-29T04:08:03.143Z,4.62
2019-04-29T04:09:04.758Z,4.62
2019-04-29T04:09:27.967Z,4.62
2019-04-29T04:10:01.118Z,4.62
2019-04-29T04:10:35.316Z,4.62
2019-04-29T04:11:08.558Z,4.62
2019-04-29T04:11:41.453Z,4.62
2019-04-29T04:12:14.425Z,4.62
2019-04-29T04:12:47.325Z,4.62
2019-04-29T04:13:20.220Z,4.62
2019-04-29T04:13:53.244Z,4.62
2019-04-29T04:14:26.276Z,4.62
2019-04-29T04:14:59.297Z,4.62
2019-04-29T04:15:32.330Z,4.62
2019-04-29T04:16:07.202Z,4.62
2019-04-29T04:17:20.446Z,4.62
2019-04-29T04:18:15.291Z,4.62
2019-04-29T04:18:48.296Z,4.62
2019-04-29T04:19:21.575Z,4.62
2019-04-29T04:19:54.633Z,4.62
2019-04-29T04:20:27.778Z,4.62
2019-04-29T04:21:00.681Z,4.62
2019-04-29T04:21:33.701Z,4.62
2019-04-29T04:22:06.716Z,4.62
2019-04-29T04:22:46.783Z,4.62
2019-04-29T04:23:19.662Z,4.69
2019-04-29T04:23:52.579Z,4.69
2019-04-29T04:24:25.476Z,4.69
2019-04-29T04:24:58.444Z,4.69
2019-04-29T04:25:31.475Z,4.69
2019-04-29T04:26:04.613Z,4.75
2019-04-29T04:26:37.646Z,4.75
2019-04-29T04:27:10.658Z,4.75
2019-04-29T04:27:43.773Z,4.75
2019-04-29T04:28:16.816Z,4.75
2019-04-29T04:28:49.949Z,4.75
2019-04-29T04:29:23.897Z,4.75
2019-04-29T04:29:57.010Z,4.81
2019-04-29T04:30:29.993Z,4.81
2019-04-29T04:31:06.787Z,4.81
2019-04-29T04:31:37.801Z,4.81
2019-04-29T04:32:10.802Z,4.81
2019-04-29T04:32:43.985Z,4.81
2019-04-29T04:33:18.134Z,4.87
2019-04-29T04:33:51.072Z,4.81
2019-04-29T04:34:23.972Z,4.87
2019-04-29T04:34:57.100Z,4.87
2019-04-29T04:35:30.167Z,4.87
2019-04-29T04:36:04.181Z,4.87
2019-04-29T04:36:37.012Z,4.81
2019-04-29T04:37:10.121Z,4.81
2019-04-29T04:37:44.188Z,4.81
2019-04-29T04:38:17.326Z,4.81
2019-04-29T04:38:50.327Z,4.81
2019-04-29T04:39:24.188Z,4.81
2019-04-29T04:39:57.247Z,4.81
2019-04-29T04:40:34.599Z,4.81
2019-04-29T04:41:08.594Z,4.81
2019-04-29T04:41:41.616Z,4.87
2019-04-29T04:42:14.526Z,4.81
2019-04-29T04:42:47.499Z,4.87
2019-04-29T04:43:20.548Z,4.87
2019-04-29T04:43:53.455Z,4.87
2019-04-29T04:44:45.980Z,4.81
2019-04-29T04:45:19.111Z,4.81
2019-04-29T04:45:52.096Z,4.81
2019-04-29T04:46:25.202Z,4.81
2019-04-29T04:46:58.021Z,4.81
2019-04-29T04:47:31.136Z,4.81
2019-04-29T04:48:04.284Z,4.81
2019-04-29T04:48:37.222Z,4.81
2019-04-29T04:49:10.328Z,4.81
2019-04-29T04:49:43.333Z,4.87
2019-04-29T04:50:16.847Z,4.81
2019-04-29T04:50:49.843Z,4.81
2019-04-29T04:51:22.636Z,4.81
2019-04-29T04:51:55.549Z,4.81
2019-04-29T04:52:28.655Z,4.81
2019-04-29T04:53:01.759Z,4.81
2019-04-29T04:53:34.718Z,4.81
2019-04-29T04:54:07.699Z,4.87
2019-04-29T04:54:40.677Z,4.87
2019-04-29T04:55:13.910Z,4.87
2019-04-29T04:55:47.802Z,4.87
2019-04-29T04:56:20.795Z,4.87
2019-04-29T04:56:53.802Z,4.87
2019-04-29T04:57:26.698Z,4.87
2019-04-29T04:57:59.836Z,4.87
2019-04-29T04:58:32.866Z,4.94
2019-04-29T04:59:05.815Z,4.94
2019-04-29T04:59:38.973Z,4.94
2019-04-29T05:00:20.242Z,4.94
2019-04-29T05:00:53.312Z,4.94
2019-04-29T05:01:26.349Z,5.00
2019-04-29T05:02:00.380Z,5.00
2019-04-29T05:02:33.338Z,5.00
2019-04-29T05:03:07.944Z,5.00
2019-04-29T05:03:40.962Z,5.06
2019-04-29T05:04:14.052Z,5.06
2019-04-29T05:04:47.191Z,5.06
2019-04-29T05:05:20.195Z,5.12
2019-04-29T05:05:53.210Z,5.12
2019-04-29T05:06:26.251Z,5.12
2019-04-29T05:06:59.290Z,5.19
2019-04-29T05:07:32.294Z,5.19
2019-04-29T05:08:05.328Z,5.25
2019-04-29T05:08:38.387Z,5.25
2019-04-29T05:09:11.290Z,5.31
2019-04-29T05:09:44.412Z,5.31
2019-04-29T05:10:17.562Z,5.37
2019-04-29T05:10:50.516Z,5.44
2019-04-29T05:11:23.432Z,5.44
2019-04-29T05:11:56.434Z,5.44
2019-04-29T05:12:29.450Z,5.50
2019-04-29T05:13:03.675Z,5.50
2019-04-29T05:13:36.686Z,5.56
2019-04-29T05:14:09.700Z,5.56
2019-04-29T05:14:42.808Z,5.56
2019-04-29T05:15:16.023Z,5.62
2019-04-29T05:15:49.128Z,5.62
2019-04-29T05:16:22.258Z,5.62
2019-04-29T05:16:55.302Z,5.69
2019-04-29T05:17:28.328Z,5.69
2019-04-29T05:18:01.251Z,5.75
2019-04-29T05:18:35.318Z,5.75
2019-04-29T05:19:08.350Z,5.75
2019-04-29T05:19:41.397Z,5.81
2019-04-29T05:20:14.418Z,5.81
2019-04-29T05:20:48.728Z,5.81
2019-04-29T05:21:21.725Z,5.87
2019-04-29T05:21:54.835Z,5.87
2019-04-29T05:22:27.825Z,5.94
2019-04-29T05:23:00.901Z,5.94
2019-04-29T05:23:33.718Z,5.94
2019-04-29T05:24:06.642Z,6.00
2019-04-29T05:24:39.710Z,6.00
2019-04-29T05:25:12.815Z,6.06
2019-04-29T05:25:45.878Z,6.06
2019-04-29T05:26:19.015Z,6.12
2019-04-29T05:26:52.013Z,6.12
2019-04-29T05:27:25.034Z,6.12
2019-04-29T05:27:59.382Z,6.19
2019-04-29T05:28:32.308Z,6.19
2019-04-29T05:29:05.216Z,6.25
2019-04-29T05:29:38.196Z,6.25
2019-04-29T05:30:11.270Z,6.31
2019-04-29T05:30:44.402Z,6.31
2019-04-29T05:31:17.432Z,6.37
2019-04-29T05:31:50.474Z,6.37
2019-04-29T05:32:23.535Z,6.37
2019-04-29T05:32:56.573Z,6.44
2019-04-29T05:33:29.578Z,6.44
2019-04-29T05:34:02.629Z,6.44
2019-04-29T05:34:41.738Z,6.50
2019-04-29T05:35:14.398Z,6.50
2019-04-29T05:36:19.068Z,6.50
2019-04-29T05:37:14.909Z,6.56
2019-04-29T05:38:02.971Z,6.62
2019-04-29T05:38:42.433Z,6.69
2019-04-29T05:39:21.942Z,6.69
2019-04-29T05:39:54.874Z,6.69
2019-04-29T05:40:39.969Z,6.75
2019-04-29T05:41:13.376Z,6.75
2019-04-29T05:41:46.474Z,6.81
2019-04-29T05:42:20.417Z,6.81
2019-04-29T05:42:54.069Z,6.81
2019-04-29T05:43:40.369Z,6.87
2019-04-29T05:44:22.960Z,6.87
2019-04-29T05:45:03.239Z,6.87
2019-04-29T05:45:46.200Z,6.94
2019-04-29T05:46:26.194Z,6.94
2019-04-29T05:47:17.987Z,6.94
2019-04-29T05:48:06.721Z,7.00
2019-04-29T05:48:39.702Z,7.06
2019-04-29T05:49:15.157Z,7.06
2019-04-29T05:50:06.737Z,7.06
2019-04-29T05:50:53.302Z,7.12
2019-04-29T05:51:48.016Z,7.12
2019-04-29T05:52:41.167Z,7.12
2019-04-29T05:53:28.386Z,7.12
2019-04-29T05:54:02.198Z,7.12
2019-04-29T05:54:35.280Z,7.12
2019-04-29T05:55:09.597Z,7.19
2019-04-29T05:55:43.666Z,7.19
2019-04-29T05:56:18.138Z,7.19
2019-04-29T05:56:51.210Z,7.19
2019-04-29T05:57:25.440Z,7.25
2019-04-29T05:58:10.502Z,7.25
2019-04-29T05:58:43.447Z,7.25
2019-04-29T05:59:16.370Z,7.25
2019-04-29T05:59:49.586Z,7.31
2019-04-29T06:00:23.217Z,7.31
2019-04-29T06:01:01.290Z,7.31
2019-04-29T06:01:34.370Z,7.31
2019-04-29T06:02:07.391Z,7.37
2019-04-29T06:02:40.315Z,7.37
2019-04-29T06:03:13.332Z,7.37
2019-04-29T06:03:46.354Z,7.44
2019-04-29T06:04:19.420Z,7.44
2019-04-29T06:04:53.952Z,7.44
2019-04-29T06:05:27.136Z,7.50
2019-04-29T06:06:00.352Z,7.50
2019-04-29T06:06:33.507Z,7.50
2019-04-29T06:07:06.638Z,7.56
2019-04-29T06:07:39.549Z,7.56
2019-04-29T06:08:12.617Z,7.56
2019-04-29T06:08:45.899Z,7.56
2019-04-29T06:09:18.998Z,7.62
2019-04-29T06:09:51.923Z,7.62
2019-04-29T06:10:24.865Z,7.62
2019-04-29T06:10:57.853Z,7.69
2019-04-29T06:11:30.770Z,7.69
2019-04-29T06:12:04.066Z,7.69
2019-04-29T06:12:37.013Z,7.75
2019-04-29T06:13:18.899Z,7.75
2019-04-29T06:14:04.588Z,7.81
2019-04-29T06:14:37.863Z,7.81
2019-04-29T06:15:11.131Z,7.81
2019-04-29T06:15:44.138Z,7.87
2019-04-29T06:16:21.054Z,7.87
2019-04-29T06:16:52.904Z,7.94
2019-04-29T06:17:29.079Z,7.94
2019-04-29T06:18:02.511Z,8.00
2019-04-29T06:18:35.556Z,8.00
2019-04-29T06:19:16.592Z,8.00
2019-04-29T06:20:00.268Z,8.06
2019-04-29T06:20:34.108Z,8.06
2019-04-29T06:21:09.682Z,8.06
2019-04-29T06:21:45.821Z,8.13
2019-04-29T06:22:18.890Z,8.13
2019-04-29T06:22:53.833Z,8.19
2019-04-29T06:23:34.580Z,8.19
2019-04-29T06:24:07.813Z,8.19
2019-04-29T06:24:42.150Z,8.19
2019-04-29T06:25:15.596Z,8.25
2019-04-29T06:25:48.755Z,8.25
2019-04-29T06:26:22.122Z,8.31
2019-04-29T06:26:55.414Z,8.31
2019-04-29T06:27:28.518Z,8.31
2019-04-29T06:28:03.498Z,8.38
2019-04-29T06:28:38.522Z,8.38
2019-04-29T06:29:11.523Z,8.38
2019-04-29T06:29:44.489Z,8.44
2019-04-29T06:30:17.522Z,8.44
2019-04-29T06:30:51.971Z,8.44
2019-04-29T06:31:26.828Z,8.50
2019-04-29T06:31:59.884Z,8.50
2019-04-29T06:32:33.052Z,8.50
2019-04-29T06:33:06.048Z,8.56
2019-04-29T06:33:39.094Z,8.56
2019-04-29T06:34:12.104Z,8.56
2019-04-29T06:34:45.168Z,8.63
2019-04-29T06:35:18.234Z,8.63
2019-04-29T06:35:51.494Z,8.63
2019-04-29T06:36:24.674Z,8.69
2019-04-29T06:36:57.794Z,8.69
2019-04-29T06:37:30.868Z,8.75
2019-04-29T06:38:04.372Z,8.75
2019-04-29T06:38:39.214Z,8.75
2019-04-29T06:39:12.414Z,8.81
2019-04-29T06:39:48.318Z,8.81
2019-04-29T06:40:24.166Z,8.88
2019-04-29T06:40:57.294Z,8.88
2019-04-29T06:41:30.559Z,8.94
2019-04-29T06:42:07.631Z,8.94
2019-04-29T06:42:40.654Z,9.00
2019-04-29T06:43:17.158Z,9.00
2019-04-29T06:43:53.111Z,9.00
2019-04-29T06:44:25.079Z,9.06
2019-04-29T06:44:58.016Z,9.06
2019-04-29T06:45:31.012Z,9.13
2019-04-29T06:46:05.840Z,9.13
2019-04-29T06:46:38.877Z,9.19
2019-04-29T06:47:11.940Z,9.19
2019-04-29T06:47:47.458Z,9.19
2019-04-29T06:48:20.928Z,9.25
2019-04-29T06:48:54.192Z,9.25
2019-04-29T06:49:27.133Z,9.25
2019-04-29T06:50:00.262Z,9.31
2019-04-29T06:50:33.448Z,9.31
2019-04-29T06:51:06.380Z,9.38
2019-04-29T06:51:39.460Z,9.38
2019-04-29T06:52:12.482Z,9.44
2019-04-29T06:52:45.554Z,9.44
2019-04-29T06:53:21.238Z,9.50
2019-04-29T06:53:53.632Z,9.56
2019-04-29T06:54:26.645Z,9.63
2019-04-29T06:54:59.868Z,9.69
2019-04-29T06:55:33.034Z,9.75
2019-04-29T06:56:09.133Z,9.81
2019-04-29T06:56:42.344Z,9.88
2019-04-29T06:57:15.384Z,10.00
2019-04-29T06:57:48.599Z,10.06
2019-04-29T06:58:21.648Z,10.13
2019-04-29T06:58:54.742Z,10.19
2019-04-29T06:59:27.848Z,10.25
2019-04-29T07:00:00.946Z,10.31
2019-04-29T07:00:35.294Z,10.38
2019-04-29T07:01:08.272Z,10.44
2019-04-29T07:01:41.352Z,10.50
2019-04-29T07:02:15.935Z,10.63
2019-04-29T07:02:49.864Z,10.69
2019-04-29T07:03:25.458Z,10.88
2019-04-29T07:04:01.464Z,11.00
2019-04-29T07:04:37.008Z,11.12
2019-04-29T07:05:11.452Z,11.25
2019-04-29T07:05:44.465Z,11.38
2019-04-29T07:06:19.267Z,11.44
2019-04-29T07:06:57.496Z,11.50
2019-04-29T07:07:27.086Z,11.56
2019-04-29T07:08:00.204Z,11.56
2019-04-29T07:08:33.972Z,11.63
2019-04-29T07:09:07.083Z,11.69
2019-04-29T07:09:40.604Z,11.75
2019-04-29T07:10:16.481Z,11.75
2019-04-29T07:10:48.710Z,11.81
2019-04-29T07:11:21.940Z,11.88
2019-04-29T07:12:01.374Z,11.94
2019-04-29T07:12:30.106Z,11.94
2019-04-29T07:13:04.295Z,11.94
2019-04-29T07:13:37.334Z,11.94
2019-04-29T07:14:10.654Z,11.94
2019-04-29T07:14:43.714Z,11.94
2019-04-29T07:15:16.793Z,12.00
2019-04-29T07:15:50.937Z,12.06
2019-04-29T07:16:27.343Z,12.13
2019-04-29T07:17:00.754Z,12.13
2019-04-29T07:17:36.591Z,12.13
2019-04-29T07:18:09.862Z,12.19
2019-04-29T07:18:48.183Z,12.19
2019-04-29T07:19:17.795Z,12.25
2019-04-29T07:19:51.033Z,12.25
2019-04-29T07:20:25.182Z,12.25
2019-04-29T07:20:58.636Z,12.19
2019-04-29T07:21:31.797Z,12.19
2019-04-29T07:22:05.180Z,12.13
2019-04-29T07:22:38.302Z,12.13
2019-04-29T07:23:11.507Z,12.13
2019-04-29T07:23:44.683Z,12.19
2019-04-29T07:24:20.323Z,12.25
2019-04-29T07:24:52.858Z,12.31
2019-04-29T07:25:28.798Z,12.37
2019-04-29T07:26:02.588Z,12.44
2019-04-29T07:26:36.020Z,12.50
2019-04-29T07:27:09.173Z,12.56
2019-04-29T07:27:44.262Z,12.56
2019-04-29T07:28:19.664Z,12.69
2019-04-29T07:28:55.817Z,12.69
2019-04-29T07:29:30.762Z,12.75
2019-04-29T07:30:06.568Z,12.75
2019-04-29T07:30:59.967Z,12.81
2019-04-29T07:31:13.656Z,12.94
2019-04-29T07:31:46.805Z,13.00
2019-04-29T07:32:19.927Z,13.13
2019-04-29T07:32:52.957Z,13.19
2019-04-29T07:33:26.028Z,13.31
2019-04-29T07:33:59.136Z,13.38
2019-04-29T07:34:33.776Z,13.56
2019-04-29T07:35:09.812Z,13.69
2019-04-29T07:35:42.948Z,13.75
2019-04-29T07:36:18.581Z,13.75
2019-04-29T07:36:53.293Z,13.69
2019-04-29T07:37:29.788Z,13.62
2019-04-29T07:38:04.502Z,13.50
2019-04-29T07:38:41.598Z,13.38
2019-04-29T07:39:12.814Z,13.31
2019-04-29T07:39:45.928Z,13.25
2019-04-29T07:40:19.160Z,13.25
2019-04-29T07:40:52.347Z,13.25
2019-04-29T07:41:26.598Z,13.31
2019-04-29T07:41:59.648Z,13.38
2019-04-29T07:42:33.406Z,13.44
2019-04-29T07:43:09.278Z,13.50
2019-04-29T07:43:44.232Z,13.62
2019-04-29T07:44:24.384Z,13.81
2019-04-29T07:45:43.616Z,14.00
2019-04-29T07:46:17.490Z,14.00
2019-04-29T07:46:58.308Z,13.94
2019-04-29T07:47:31.084Z,13.94
2019-04-29T07:48:06.417Z,13.94
2019-04-29T07:48:41.986Z,14.06
2019-04-29T07:49:17.239Z,14.13
2019-04-29T07:49:51.512Z,14.25
2019-04-29T07:50:26.762Z,14.31
2019-04-29T07:51:04.043Z,14.44
2019-04-29T07:51:39.025Z,14.56